Time;durP1;ratioP1;P1;durP2;ratioP2;P2;SDS_P1;SDS_P2;PMS_P1;PMS_P2;Temp;Humidity;BMP_temperature;BMP_pressure;BME280_temperature;BME280_humidity;BME280_pressure;Samples;Min_cycle;Max_cycle;Signal;HPM_P1;HPM_P2
2022/06/05 00:00:04;;;;;;;16.70;10.13;;;;;;;;;;4930046;29;20123;-63
2022/06/05 00:02:34;;;;;;;20.80;10.85;;;;;;;;;;4930397;29;20396;-63
2022/06/05 00:05:00;;;;;;;17.02;10.00;;;;;;;;;;4913628;29;20067;-63
2022/06/05 00:07:41;;;;;;;18.00;10.60;;;;;;;;;;4930239;29;20059;-63
2022/06/05 00:10:17;;;;;;;15.63;9.80;;;;;;;;;;4930556;29;20043;-63
2022/06/05 00:12:46;;;;;;;16.58;9.85;;;;;;;;;;4930413;29;20028;-63
2022/06/05 00:15:12;;;;;;;15.73;9.80;;;;;;;;;;4931840;29;20146;-63
2022/06/05 00:17:39;;;;;;;16.02;9.90;;;;;;;;;;4933410;29;20039;-63
2022/06/05 00:20:06;;;;;;;16.52;9.82;;;;;;;;;;4933977;29;20430;-63
2022/06/05 00:22:33;;;;;;;17.30;10.90;;;;;;;;;;4933677;29;20407;-63
2022/06/05 00:24:59;;;;;;;16.83;10.48;;;;;;;;;;4933583;29;20038;-63
2022/06/05 00:27:46;;;;;;;16.95;10.30;;;;;;;;;;4933336;29;20024;-63
2022/06/05 00:30:18;;;;;;;16.00;9.70;;;;;;;;;;4916318;29;20499;-63
2022/06/05 00:32:50;;;;;;;16.90;9.43;;;;;;;;;;4933551;29;20446;-64
2022/06/05 00:35:17;;;;;;;16.95;10.20;;;;;;;;;;4933490;29;20027;-63
2022/06/05 00:37:49;;;;;;;16.63;10.10;;;;;;;;;;4933176;29;20464;-63
2022/06/05 00:40:15;;;;;;;15.80;9.38;;;;;;;;;;4933210;29;20064;-63
2022/06/05 00:42:41;;;;;;;16.45;10.68;;;;;;;;;;4933234;29;20104;-63
2022/06/05 00:45:10;;;;;;;15.77;10.45;;;;;;;;;;4933372;29;20459;-63
2022/06/05 00:47:35;;;;;;;;;;;;;;;;;;4933479;29;20028;-63
2022/06/05 00:50:06;;;;;;;16.70;9.90;;;;;;;;;;4933305;29;19914;-63
2022/06/05 00:52:33;;;;;;;15.48;9.55;;;;;;;;;;4933177;29;20024;-64
2022/06/05 00:55:00;;;;;;;16.63;10.38;;;;;;;;;;4933000;29;20047;-63
2022/06/05 00:57:30;;;;;;;17.23;11.15;;;;;;;;;;4933034;29;20038;-63
2022/06/05 00:59:58;;;;;;;17.67;10.48;;;;;;;;;;4933178;29;20027;-63
2022/06/05 01:02:24;;;;;;;16.77;9.93;;;;;;;;;;4946725;23;20023;-60
2022/06/05 01:04:50;;;;;;;17.05;9.70;;;;;;;;;;4953350;29;20039;-63
2022/06/05 01:07:17;;;;;;;16.40;9.70;;;;;;;;;;4953152;29;20027;-62
2022/06/05 01:09:44;;;;;;;17.02;9.95;;;;;;;;;;4953381;29;20623;-63
2022/06/05 01:12:31;;;;;;;18.08;9.73;;;;;;;;;;4953015;29;20107;-62
2022/06/05 01:15:18;;;;;;;18.63;10.68;;;;;;;;;;4953266;29;20110;-63
2022/06/05 01:17:53;;;;;;;18.73;10.85;;;;;;;;;;4935600;29;20399;-61
2022/06/05 01:20:37;;;;;;;16.15;9.73;;;;;;;;;;4952967;28;20024;-63
2022/06/05 01:23:13;;;;;;;16.65;10.13;;;;;;;;;;4953114;28;20031;-63
2022/06/05 01:25:42;;;;;;;16.42;9.90;;;;;;;;;;4952791;28;20502;-63
2022/06/05 01:28:12;;;;;;;17.13;10.40;;;;;;;;;;4952692;29;20027;-63
2022/06/05 01:30:55;;;;;;;18.65;10.45;;;;;;;;;;4952868;28;20429;-62
2022/06/05 01:33:23;;;;;;;16.20;10.43;;;;;;;;;;4952917;29;20121;-63
2022/06/05 01:35:49;;;;;;;16.73;10.02;;;;;;;;;;4935886;28;20030;-63
2022/06/05 01:38:21;;;;;;;16.85;9.82;;;;;;;;;;4935510;28;20122;-63
2022/06/05 01:40:49;;;;;;;17.92;9.75;;;;;;;;;;4953068;28;20054;-63
2022/06/05 01:43:20;;;;;;;17.60;10.93;;;;;;;;;;4953051;28;20027;-63
2022/06/05 01:45:49;;;;;;;16.65;10.50;;;;;;;;;;4953056;29;20449;-62
2022/06/05 01:48:18;;;;;;;16.63;9.88;;;;;;;;;;4935622;28;20034;-62
2022/06/05 01:50:46;;;;;;;17.15;10.20;;;;;;;;;;4935572;28;20057;-62
2022/06/05 01:53:24;;;;;;;16.58;9.75;;;;;;;;;;4935584;28;20023;-62
2022/06/05 01:55:53;;;;;;;17.35;10.23;;;;;;;;;;4935874;28;20023;-62
2022/06/05 01:58:22;;;;;;;17.75;10.23;;;;;;;;;;4952510;28;20158;-63
2022/06/05 02:00:51;;;;;;;18.17;10.43;;;;;;;;;;4935436;28;20493;-63
2022/06/05 02:03:26;;;;;;;18.33;9.95;;;;;;;;;;4952432;28;20043;-62
2022/06/05 02:05:58;;;;;;;16.73;9.80;;;;;;;;;;4952382;29;20038;-63
2022/06/05 02:08:30;;;;;;;18.25;10.30;;;;;;;;;;4952139;28;20114;-62
2022/06/05 02:11:17;;;;;;;17.77;10.20;;;;;;;;;;4952483;28;20031;-63
2022/06/05 02:13:43;;;;;;;19.67;10.75;;;;;;;;;;4952412;28;20031;-63
2022/06/05 02:16:09;;;;;;;18.40;10.30;;;;;;;;;;4952339;28;20023;-63
2022/06/05 02:18:35;;;;;;;17.08;10.27;;;;;;;;;;4934744;28;20053;-63
2022/06/05 02:21:02;;;;;;;17.77;10.30;;;;;;;;;;4934990;28;20023;-63
2022/06/05 02:23:29;;;;;;;18.05;10.90;;;;;;;;;;4952175;28;20030;-63
2022/06/05 02:25:55;;;;;;;18.42;10.20;;;;;;;;;;4952247;29;20031;-62
2022/06/05 02:28:21;;;;;;;16.33;9.73;;;;;;;;;;4951924;29;20035;-62
2022/06/05 02:31:00;;;;;;;17.25;10.02;;;;;;;;;;4952065;29;20031;-63
2022/06/05 02:33:26;;;;;;;;;;;;;;;;;;4952297;28;20111;-62
2022/06/05 02:35:55;;;;;;;18.77;10.88;;;;;;;;;;4934819;28;19961;-63
2022/06/05 02:38:27;;;;;;;18.35;11.55;;;;;;;;;;4950803;29;20023;-63
2022/06/05 02:40:53;;;;;;;19.77;11.07;;;;;;;;;;4951727;29;20387;-63
2022/06/05 02:43:39;;;;;;;17.20;10.43;;;;;;;;;;4934553;28;20049;-62
2022/06/05 02:46:10;;;;;;;17.55;10.75;;;;;;;;;;4951754;29;20043;-63
2022/06/05 02:48:45;;;;;;;17.63;10.55;;;;;;;;;;4951807;29;20081;-63
2022/06/05 02:51:16;;;;;;;18.45;11.13;;;;;;;;;;4934594;28;20032;-62
2022/06/05 02:53:46;;;;;;;17.60;10.75;;;;;;;;;;4951885;28;20047;-62
2022/06/05 02:56:12;;;;;;;16.45;10.40;;;;;;;;;;4951912;29;20500;-62
2022/06/05 02:58:38;;;;;;;18.05;10.85;;;;;;;;;;4951396;28;20057;-63
2022/06/05 03:03:49;;;;;;;17.20;11.13;;;;;;;;;;4951486;29;20046;-63
2022/06/05 03:06:16;;;;;;;17.65;10.43;;;;;;;;;;4951338;28;20419;-62
2022/06/05 03:08:42;;;;;;;17.17;10.68;;;;;;;;;;4951133;28;20028;-62
2022/06/05 03:11:07;;;;;;;17.50;10.10;;;;;;;;;;4934296;28;20080;-62
2022/06/05 03:13:34;;;;;;;18.08;11.35;;;;;;;;;;4951388;28;20023;-63
2022/06/05 03:16:00;;;;;;;19.52;10.70;;;;;;;;;;4934321;28;20058;-62
2022/06/05 03:18:26;;;;;;;18.67;11.63;;;;;;;;;;4951275;28;20028;-64
2022/06/05 03:20:56;;;;;;;17.75;10.90;;;;;;;;;;4951411;28;20046;-62
2022/06/05 03:23:22;;;;;;;17.38;10.18;;;;;;;;;;4951422;28;20027;-62
2022/06/05 03:25:48;;;;;;;16.48;10.07;;;;;;;;;;4951277;28;20114;-63
2022/06/05 03:28:14;;;;;;;17.58;10.20;;;;;;;;;;4933824;28;20042;-61
2022/06/05 03:30:41;;;;;;;18.23;10.25;;;;;;;;;;4951179;28;20028;-62
2022/06/05 03:33:08;;;;;;;18.77;11.13;;;;;;;;;;4933555;28;20426;-62
2022/06/05 03:35:42;;;;;;;17.55;10.68;;;;;;;;;;4950841;28;20031;-62
2022/06/05 03:38:08;;;;;;;16.88;10.60;;;;;;;;;;4951004;29;20077;-60
2022/06/05 03:40:34;;;;;;;17.83;10.90;;;;;;;;;;4951449;28;20024;-62
2022/06/05 03:43:01;;;;;;;18.15;10.40;;;;;;;;;;4951193;28;20459;-63
2022/06/05 03:45:27;;;;;;;17.33;10.57;;;;;;;;;;4950704;29;20015;-61
2022/06/05 03:47:53;;;;;;;19.38;11.25;;;;;;;;;;4933591;28;20023;-63
2022/06/05 03:50:19;;;;;;;17.17;10.38;;;;;;;;;;4954102;28;20060;-63
2022/06/05 03:52:45;;;;;;;19.80;11.00;;;;;;;;;;4954134;29;20028;-61
2022/06/05 03:55:13;;;;;;;16.80;10.57;;;;;;;;;;4954247;29;20058;-64
2022/06/05 03:57:40;;;;;;;17.65;10.50;;;;;;;;;;4936891;28;20541;-63
2022/06/05 04:00:07;;;;;;;16.65;10.02;;;;;;;;;;4937261;28;20034;-63
2022/06/05 04:02:34;;;;;;;17.92;10.82;;;;;;;;;;4953905;28;20114;-63
2022/06/05 04:05:00;;;;;;;17.23;10.77;;;;;;;;;;4936891;28;20440;-63
2022/06/05 04:07:27;;;;;;;18.38;11.85;;;;;;;;;;4936489;28;20054;-63
2022/06/05 04:09:53;;;;;;;17.00;10.77;;;;;;;;;;4937066;28;20031;-61
2022/06/05 04:12:18;;;;;;;17.80;10.75;;;;;;;;;;4936989;28;20185;-63
2022/06/05 04:14:44;;;;;;;18.90;11.60;;;;;;;;;;4953755;28;20031;-63
2022/06/05 04:17:11;;;;;;;17.95;10.77;;;;;;;;;;4936630;28;20023;-60
2022/06/05 04:19:37;;;;;;;17.10;11.05;;;;;;;;;;4953938;28;20034;-62
2022/06/05 04:22:04;;;;;;;19.98;11.30;;;;;;;;;;4953884;28;20019;-63
2022/06/05 04:24:30;;;;;;;17.10;10.70;;;;;;;;;;4954208;28;20054;-63
2022/06/05 04:26:57;;;;;;;18.80;11.45;;;;;;;;;;4953845;29;20058;-62
2022/06/05 04:29:23;;;;;;;17.45;10.95;;;;;;;;;;4936383;28;20031;-63
2022/06/05 04:31:50;;;;;;;17.73;11.05;;;;;;;;;;4936365;28;20084;-62
2022/06/05 04:34:17;;;;;;;17.88;10.57;;;;;;;;;;4953708;28;20387;-62
2022/06/05 04:36:43;;;;;;;18.80;11.02;;;;;;;;;;4953600;29;20028;-63
2022/06/05 04:39:10;;;;;;;18.00;10.90;;;;;;;;;;4953324;29;20073;-66
2022/06/05 04:41:36;;;;;;;19.23;11.80;;;;;;;;;;4953469;28;20027;-64
2022/06/05 04:44:02;;;;;;;16.85;11.25;;;;;;;;;;4953301;28;20023;-61
2022/06/05 04:46:29;;;;;;;19.33;10.95;;;;;;;;;;4953478;28;20028;-61
2022/06/05 04:48:55;;;;;;;18.70;11.15;;;;;;;;;;4953530;28;20482;-60
2022/06/05 04:51:22;;;;;;;18.52;11.48;;;;;;;;;;4953410;29;20034;-60
2022/06/05 04:53:49;;;;;;;16.55;10.95;;;;;;;;;;4953417;28;20097;-61
2022/06/05 04:56:17;;;;;;;17.98;10.82;;;;;;;;;;4953522;29;20077;-60
2022/06/05 04:58:43;;;;;;;17.63;11.30;;;;;;;;;;4936114;28;20031;-61
2022/06/05 05:01:10;;;;;;;16.25;10.95;;;;;;;;;;4952734;28;20543;-60
2022/06/05 05:03:36;;;;;;;17.60;11.00;;;;;;;;;;4953126;28;20035;-60
2022/06/05 05:06:02;;;;;;;17.60;11.70;;;;;;;;;;4936098;28;20522;-60
2022/06/05 05:08:28;;;;;;;17.05;11.52;;;;;;;;;;4953180;28;20030;-60
2022/06/05 05:10:54;;;;;;;17.83;11.65;;;;;;;;;;4953270;29;20398;-60
2022/06/05 05:13:20;;;;;;;19.52;11.90;;;;;;;;;;4935827;28;20035;-62
2022/06/05 05:15:50;;;;;;;21.67;11.55;;;;;;;;;;4953012;29;20058;-62
2022/06/05 05:18:16;;;;;;;16.98;11.52;;;;;;;;;;4952822;29;20471;-63
2022/06/05 05:20:42;;;;;;;20.05;12.95;;;;;;;;;;4953161;29;20086;-61
2022/06/05 05:23:08;;;;;;;16.92;11.50;;;;;;;;;;4953088;28;20027;-60
2022/06/05 05:25:34;;;;;;;17.10;11.45;;;;;;;;;;4952996;28;20475;-63
2022/06/05 05:28:00;;;;;;;17.88;11.30;;;;;;;;;;4952613;29;20205;-62
2022/06/05 05:30:26;;;;;;;17.90;11.77;;;;;;;;;;4953171;28;20031;-63
2022/06/05 05:32:52;;;;;;;16.85;11.95;;;;;;;;;;4952709;29;20502;-62
2022/06/05 05:35:20;;;;;;;17.05;11.75;;;;;;;;;;4952684;28;20034;-63
2022/06/05 05:37:46;;;;;;;17.83;11.55;;;;;;;;;;4952475;29;20019;-62
2022/06/05 05:42:57;;;;;;;18.27;13.00;;;;;;;;;;4952912;29;20038;-63
2022/06/05 05:45:23;;;;;;;17.33;11.70;;;;;;;;;;4952613;29;20027;-63
2022/06/05 05:47:49;;;;;;;18.02;11.68;;;;;;;;;;4935063;28;20122;-63
2022/06/05 05:50:15;;;;;;;18.25;12.55;;;;;;;;;;4952618;28;20054;-64
2022/06/05 05:52:42;;;;;;;17.55;12.32;;;;;;;;;;4935647;28;20398;-61
2022/06/05 05:55:12;;;;;;;18.45;12.02;;;;;;;;;;4952707;28;20047;-60
2022/06/05 05:57:39;;;;;;;18.92;11.77;;;;;;;;;;4952370;29;20076;-62
2022/06/05 06:00:09;;;;;;;17.70;12.18;;;;;;;;;;4952958;28;20093;-62
2022/06/05 06:02:34;;;;;;;18.65;12.32;;;;;;;;;;4952681;28;20031;-63
2022/06/05 06:05:00;;;;;;;18.42;12.15;;;;;;;;;;4952631;29;20514;-62
2022/06/05 06:07:27;;;;;;;17.33;11.85;;;;;;;;;;4952372;28;20050;-61
2022/06/05 06:09:53;;;;;;;18.67;12.02;;;;;;;;;;4952340;29;20027;-61
2022/06/05 06:12:19;;;;;;;18.38;12.38;;;;;;;;;;4951298;29;20029;-62
2022/06/05 06:14:45;;;;;;;17.13;11.63;;;;;;;;;;4952395;28;20031;-63
2022/06/05 06:17:11;;;;;;;17.13;11.38;;;;;;;;;;4934808;28;20077;-60
2022/06/05 06:19:38;;;;;;;17.48;12.00;;;;;;;;;;4952297;29;20058;-60
2022/06/05 06:22:04;;;;;;;17.13;11.85;;;;;;;;;;4952077;28;20024;-60
2022/06/05 06:24:30;;;;;;;18.95;12.35;;;;;;;;;;4952568;29;20035;-63
2022/06/05 06:26:56;;;;;;;18.17;12.20;;;;;;;;;;4934969;28;20031;-61
2022/06/05 06:29:22;;;;;;;17.15;11.35;;;;;;;;;;4934706;28;20027;-61
2022/06/05 06:31:48;;;;;;;17.90;12.27;;;;;;;;;;4951866;28;20391;-62
2022/06/05 06:34:14;;;;;;;21.23;14.13;;;;;;;;;;4934537;28;20030;-60
2022/06/05 06:36:40;;;;;;;17.20;12.40;;;;;;;;;;4951842;28;20024;-61
2022/06/05 06:39:07;;;;;;;17.45;12.10;;;;;;;;;;4951611;28;20372;-60
2022/06/05 06:41:33;;;;;;;28.27;13.02;;;;;;;;;;4951813;29;20034;-60
2022/06/05 06:43:59;;;;;;;18.13;12.70;;;;;;;;;;4951750;28;20501;-60
2022/06/05 06:46:25;;;;;;;17.65;12.27;;;;;;;;;;4951807;28;20059;-60
2022/06/05 06:48:51;;;;;;;17.45;12.38;;;;;;;;;;4951237;29;20078;-61
2022/06/05 06:51:18;;;;;;;20.10;12.60;;;;;;;;;;4951385;28;20042;-62
2022/06/05 06:53:44;;;;;;;17.42;11.98;;;;;;;;;;4951505;28;20031;-60
2022/06/05 06:56:12;;;;;;;16.92;11.85;;;;;;;;;;4934571;28;20085;-61
2022/06/05 06:58:38;;;;;;;19.55;13.15;;;;;;;;;;4934185;28;20491;-60
2022/06/05 07:01:04;;;;;;;17.80;12.20;;;;;;;;;;4951506;28;20035;-61
2022/06/05 07:03:31;;;;;;;18.15;13.35;;;;;;;;;;4952916;23;20105;-62
2022/06/05 07:05:57;;;;;;;17.25;12.20;;;;;;;;;;4934321;29;20035;-62
2022/06/05 07:08:23;;;;;;;20.05;13.15;;;;;;;;;;4933477;29;20029;-63
2022/06/05 07:10:49;;;;;;;19.02;12.45;;;;;;;;;;4951355;29;20020;-64
2022/06/05 07:13:16;;;;;;;16.85;12.20;;;;;;;;;;4951091;29;20424;-63
2022/06/05 07:15:42;;;;;;;18.35;12.43;;;;;;;;;;4951303;28;20027;-63
2022/06/05 07:18:08;;;;;;;20.25;13.00;;;;;;;;;;4951290;28;20028;-63
2022/06/05 07:20:38;;;;;;;18.40;12.88;;;;;;;;;;4950754;28;20024;-63
2022/06/05 07:23:04;;;;;;;17.48;11.88;;;;;;;;;;4950967;28;20039;-63
2022/06/05 07:25:30;;;;;;;17.63;13.02;;;;;;;;;;4951366;28;20035;-62
2022/06/05 07:27:56;;;;;;;18.77;12.75;;;;;;;;;;4951125;28;20380;-64
2022/06/05 07:30:22;;;;;;;17.48;13.23;;;;;;;;;;4934089;28;20074;-64
2022/06/05 07:32:49;;;;;;;17.80;13.23;;;;;;;;;;4951209;29;20031;-63
2022/06/05 07:35:15;;;;;;;18.48;12.90;;;;;;;;;;4933768;28;20487;-63
2022/06/05 07:37:43;;;;;;;18.98;13.25;;;;;;;;;;4933666;28;20073;-61
2022/06/05 07:40:09;;;;;;;17.25;12.73;;;;;;;;;;4951235;28;20105;-63
2022/06/05 07:42:36;;;;;;;18.33;12.88;;;;;;;;;;4951063;28;20027;-62
2022/06/05 07:45:03;;;;;;;19.98;13.15;;;;;;;;;;4950692;29;20387;-63
2022/06/05 07:47:29;;;;;;;18.25;13.20;;;;;;;;;;4950643;29;20035;-63
2022/06/05 07:49:55;;;;;;;20.15;12.98;;;;;;;;;;4950789;28;20028;-66
2022/06/05 07:55:06;;;;;;;17.50;13.02;;;;;;;;;;4950879;29;20035;-63
2022/06/05 07:57:32;;;;;;;18.40;13.25;;;;;;;;;;4950638;29;20438;-63
2022/06/05 07:59:58;;;;;;;18.30;13.93;;;;;;;;;;4950713;28;20030;-63
2022/06/05 08:02:25;;;;;;;18.83;13.02;;;;;;;;;;4950595;28;20024;-61
2022/06/05 08:04:52;;;;;;;17.90;13.15;;;;;;;;;;4950511;28;20035;-63
2022/06/05 08:07:19;;;;;;;18.27;13.07;;;;;;;;;;4950382;29;20484;-62
2022/06/05 08:09:46;;;;;;;18.23;13.55;;;;;;;;;;4950670;29;20050;-63
2022/06/05 08:12:13;;;;;;;18.73;13.18;;;;;;;;;;4950475;28;20054;-63
2022/06/05 08:14:40;;;;;;;17.20;12.45;;;;;;;;;;4950506;28;20027;-62
2022/06/05 08:17:07;;;;;;;18.23;12.93;;;;;;;;;;4950778;28;20051;-63
2022/06/05 08:19:33;;;;;;;18.63;13.18;;;;;;;;;;4950516;28;20023;-63
2022/06/05 08:21:59;;;;;;;19.60;14.15;;;;;;;;;;4950687;29;20035;-63
2022/06/05 08:24:25;;;;;;;22.17;13.80;;;;;;;;;;4950304;28;20039;-62
2022/06/05 08:26:51;;;;;;;19.25;12.75;;;;;;;;;;4950386;29;20032;-57
2022/06/05 08:29:18;;;;;;;17.95;12.95;;;;;;;;;;4950388;29;20031;-64
2022/06/05 08:31:44;;;;;;;18.70;13.30;;;;;;;;;;4950545;29;20149;-61
2022/06/05 08:34:10;;;;;;;17.88;13.77;;;;;;;;;;4950735;28;20024;-58
2022/06/05 08:36:37;;;;;;;19.27;13.57;;;;;;;;;;4935303;28;20030;-59
2022/06/05 08:42:00;;;;;;;17.23;12.70;;;;;;;;;;4962615;28;20036;-62
2022/06/05 08:44:53;;;;;;;17.90;13.13;;;;;;;;;;4941133;29;20031;-62
2022/06/05 08:47:20;;;;;;;18.00;13.35;;;;;;;;;;4936376;28;20046;-62
2022/06/05 08:49:54;;;;;;;19.67;13.88;;;;;;;;;;4915944;28;20038;-63
2022/06/05 08:52:20;;;;;;;18.08;13.55;;;;;;;;;;4931731;28;20023;-62
2022/06/05 08:54:50;;;;;;;18.70;13.95;;;;;;;;;;4931765;28;20032;-63
2022/06/05 08:57:19;;;;;;;19.67;14.57;;;;;;;;;;4921815;28;20119;-63
2022/06/05 09:00:03;;;;;;;19.13;13.43;;;;;;;;;;4941682;28;20102;-63
2022/06/05 09:02:48;;;;;;;18.75;13.25;;;;;;;;;;4941655;29;20038;-62
2022/06/05 09:05:19;;;;;;;17.90;13.43;;;;;;;;;;4933422;28;20093;-62
2022/06/05 09:07:48;;;;;;;17.58;14.10;;;;;;;;;;4931225;28;20032;-63
2022/06/05 09:10:29;;;;;;;18.10;13.70;;;;;;;;;;4931489;28;20031;-63
2022/06/05 09:12:59;;;;;;;17.38;13.13;;;;;;;;;;4914171;28;20023;-63
2022/06/05 09:15:26;;;;;;;19.85;13.10;;;;;;;;;;4929327;28;20089;-63
2022/06/05 09:17:57;;;;;;;18.38;13.15;;;;;;;;;;4922905;28;20441;-65
2022/06/05 09:20:46;;;;;;;17.65;12.48;;;;;;;;;;4941177;28;20019;-64
2022/06/05 09:23:32;;;;;;;18.42;12.60;;;;;;;;;;4918342;29;20043;-63
2022/06/05 09:25:58;;;;;;;17.55;13.30;;;;;;;;;;4936613;29;20028;-61
2022/06/05 09:28:29;;;;;;;18.25;13.05;;;;;;;;;;4922889;28;20073;-61
2022/06/05 09:31:13;;;;;;;18.95;12.68;;;;;;;;;;4940921;28;20025;-62
2022/06/05 09:33:41;;;;;;;18.13;13.43;;;;;;;;;;4935751;28;20034;-62
2022/06/05 09:36:08;;;;;;;17.80;13.05;;;;;;;;;;4913528;28;20027;-63
2022/06/05 09:38:40;;;;;;;18.20;12.73;;;;;;;;;;4930326;28;20503;-63
2022/06/05 09:41:16;;;;;;;19.55;13.60;;;;;;;;;;4943132;28;20470;-63
2022/06/05 09:43:54;;;;;;;18.70;13.45;;;;;;;;;;4949571;28;20487;-62
2022/06/05 09:46:29;;;;;;;20.42;13.10;;;;;;;;;;4949371;28;20652;-61
2022/06/05 09:49:02;;;;;;;17.60;12.88;;;;;;;;;;4950524;29;20039;-62
2022/06/05 09:51:28;;;;;;;17.58;13.25;;;;;;;;;;4949915;29;20114;-61
2022/06/05 09:53:54;;;;;;;21.45;12.95;;;;;;;;;;4933272;28;20038;-61
2022/06/05 09:56:23;;;;;;;17.40;13.10;;;;;;;;;;4952431;28;20030;-61
2022/06/05 09:59:08;;;;;;;19.00;13.05;;;;;;;;;;4952017;28;20597;-61
2022/06/05 10:01:36;;;;;;;19.20;13.05;;;;;;;;;;4952376;28;20026;-61
2022/06/05 10:04:05;;;;;;;17.73;13.43;;;;;;;;;;4951972;28;20411;-61
2022/06/05 10:06:39;;;;;;;18.23;13.27;;;;;;;;;;4952339;29;20032;-62
2022/06/05 10:09:13;;;;;;;18.00;13.07;;;;;;;;;;4952193;28;20019;-62
2022/06/05 10:11:51;;;;;;;19.05;13.60;;;;;;;;;;4952183;28;20031;-62
2022/06/05 10:14:23;;;;;;;17.38;12.48;;;;;;;;;;4946804;28;20028;-62
2022/06/05 10:16:52;;;;;;;17.55;12.82;;;;;;;;;;4932914;29;20396;-62
2022/06/05 10:19:29;;;;;;;18.15;12.50;;;;;;;;;;4932665;29;20105;-62
2022/06/05 10:22:14;;;;;;;18.23;12.50;;;;;;;;;;4932860;29;20030;-62
2022/06/05 10:24:49;;;;;;;18.23;12.30;;;;;;;;;;4932954;29;20067;-63
2022/06/05 10:27:16;;;;;;;18.95;12.05;;;;;;;;;;4932592;29;20031;-62
2022/06/05 10:29:46;;;;;;;18.45;11.93;;;;;;;;;;4932907;29;20110;-63
2022/06/05 10:32:15;;;;;;;16.60;11.88;;;;;;;;;;4932784;29;20054;-62
2022/06/05 10:34:41;;;;;;;16.83;11.98;;;;;;;;;;4915632;29;20024;-62
2022/06/05 10:37:26;;;;;;;17.70;11.90;;;;;;;;;;4932698;29;20070;-61
2022/06/05 10:39:55;;;;;;;17.15;12.40;;;;;;;;;;4933001;29;20032;-61
2022/06/05 10:42:25;;;;;;;17.02;12.88;;;;;;;;;;4944347;28;20029;-61
2022/06/05 10:44:59;;;;;;;18.42;11.85;;;;;;;;;;4951589;29;20391;-61
2022/06/05 10:47:44;;;;;;;16.75;11.48;;;;;;;;;;4951421;29;20027;-61
2022/06/05 10:50:22;;;;;;;16.55;12.15;;;;;;;;;;4951593;29;20027;-62
2022/06/05 10:52:51;;;;;;;20.10;13.18;;;;;;;;;;4951521;28;20062;-62
2022/06/05 10:55:26;;;;;;;18.92;12.30;;;;;;;;;;4951382;28;20096;-62
2022/06/05 10:57:56;;;;;;;16.98;12.40;;;;;;;;;;4950907;28;20070;-62
2022/06/05 11:00:28;;;;;;;18.50;12.30;;;;;;;;;;4951540;28;20077;-62
2022/06/05 11:02:54;;;;;;;17.30;12.60;;;;;;;;;;4951404;29;20387;-62
2022/06/05 11:05:26;;;;;;;17.38;11.48;;;;;;;;;;4933981;28;20035;-63
2022/06/05 11:08:01;;;;;;;18.05;12.52;;;;;;;;;;4950821;28;20038;-62
2022/06/05 11:13:39;;;;;;;18.38;12.20;;;;;;;;;;4950867;28;20035;-62
2022/06/05 11:13:45;;;;;;;17.42;11.88;;;;;;;;;;4595096;28;9999749;-64
2022/06/05 11:16:14;;;;;;;18.27;11.82;;;;;;;;;;4929016;29;20024;-62
2022/06/05 11:18:44;;;;;;;17.27;12.30;;;;;;;;;;4929027;29;20028;-63
2022/06/05 11:21:10;;;;;;;17.70;12.18;;;;;;;;;;4928876;29;20055;-63
2022/06/05 11:23:39;;;;;;;16.60;12.30;;;;;;;;;;4912151;29;20035;-62
2022/06/05 11:26:05;;;;;;;18.02;11.85;;;;;;;;;;4929267;29;20104;-61
2022/06/05 11:28:50;;;;;;;17.25;12.98;;;;;;;;;;4928977;29;20448;-61
2022/06/05 11:31:17;;;;;;;17.90;12.70;;;;;;;;;;4929418;29;20035;-63
2022/06/05 11:33:52;;;;;;;18.97;13.43;;;;;;;;;;4912037;29;20032;-61
2022/06/05 11:36:24;;;;;;;17.15;12.40;;;;;;;;;;4912048;29;20119;-62
2022/06/05 11:38:50;;;;;;;17.40;12.18;;;;;;;;;;4928848;29;20464;-62
2022/06/05 11:41:28;;;;;;;17.58;13.18;;;;;;;;;;4911974;29;20032;-62
2022/06/05 11:44:17;;;;;;;17.33;12.32;;;;;;;;;;4929093;28;20105;-62
2022/06/05 11:47:04;;;;;;;17.67;13.25;;;;;;;;;;4929183;28;20032;-63
2022/06/05 11:49:49;;;;;;;16.38;12.35;;;;;;;;;;4911640;28;20081;-62
2022/06/05 11:52:27;;;;;;;18.75;13.23;;;;;;;;;;4928956;29;20615;-62
2022/06/05 11:54:53;;;;;;;19.85;13.02;;;;;;;;;;4928732;28;20032;-62
2022/06/05 11:57:37;;;;;;;18.25;13.55;;;;;;;;;;4929265;29;20074;-63
2022/06/05 12:00:15;;;;;;;18.00;12.85;;;;;;;;;;4930273;29;20062;-63
2022/06/05 12:02:41;;;;;;;;;;;;;;;;;;4932059;29;20020;-62
2022/06/05 12:05:16;;;;;;;18.30;12.60;;;;;;;;;;4931294;29;19925;-62
2022/06/05 12:07:42;;;;;;;17.42;12.32;;;;;;;;;;4931088;29;20028;-62
2022/06/05 12:10:10;;;;;;;18.55;12.52;;;;;;;;;;4933051;29;20027;-63
2022/06/05 12:12:38;;;;;;;20.08;13.32;;;;;;;;;;4934766;29;20058;-61
2022/06/05 12:15:26;;;;;;;18.67;13.30;;;;;;;;;;4934616;28;20035;-62
2022/06/05 12:17:55;;;;;;;18.20;12.13;;;;;;;;;;4917504;28;20063;-61
2022/06/05 12:20:56;;;;;;;18.27;12.32;;;;;;;;;;4934744;28;20055;-62
2022/06/05 12:23:28;;;;;;;17.98;11.65;;;;;;;;;;4935412;29;20031;-63
2022/06/05 12:26:03;;;;;;;20.08;13.65;;;;;;;;;;4934708;29;20110;-63
2022/06/05 12:28:39;;;;;;;18.67;12.80;;;;;;;;;;4934306;29;20483;-63
2022/06/05 12:31:20;;;;;;;17.17;11.43;;;;;;;;;;4934629;28;20047;-64
2022/06/05 12:34:02;;;;;;;18.08;11.85;;;;;;;;;;4917182;28;20036;-64
2022/06/05 12:36:41;;;;;;;18.58;12.07;;;;;;;;;;4682514;28;10000364;-64
2022/06/05 12:39:22;;;;;;;18.50;11.70;;;;;;;;;;4931397;29;20665;-64
2022/06/05 12:41:51;;;;;;;17.77;12.05;;;;;;;;;;4922250;28;20027;-64
2022/06/05 12:44:34;;;;;;;16.63;11.68;;;;;;;;;;4951927;28;20031;-64
2022/06/05 12:47:30;;;;;;;16.95;11.52;;;;;;;;;;4953449;29;20027;-64
2022/06/05 12:49:56;;;;;;;17.95;11.57;;;;;;;;;;4949952;29;20030;-64
2022/06/05 12:52:28;;;;;;;18.25;12.00;;;;;;;;;;4953291;29;20023;-64
2022/06/05 12:55:13;;;;;;;16.13;10.90;;;;;;;;;;4953208;29;20035;-64
2022/06/05 12:57:49;;;;;;;16.15;11.40;;;;;;;;;;4939024;29;20032;-63
2022/06/05 13:00:22;;;;;;;17.63;11.95;;;;;;;;;;4934596;29;20034;-63
2022/06/05 13:02:55;;;;;;;17.52;12.77;;;;;;;;;;4934501;29;20050;-63
2022/06/05 13:05:21;;;;;;;17.98;12.82;;;;;;;;;;4960871;23;20047;-64
2022/06/05 13:07:48;;;;;;;17.92;12.82;;;;;;;;;;4952266;28;20038;-64
2022/06/05 13:10:18;;;;;;;19.45;12.95;;;;;;;;;;4953438;29;20024;-64
2022/06/05 13:13:10;;;;;;;18.02;12.80;;;;;;;;;;4953247;29;20042;-64
2022/06/05 13:15:49;;;;;;;20.00;13.95;;;;;;;;;;4934424;29;20047;-65
2022/06/05 13:18:25;;;;;;;19.50;13.63;;;;;;;;;;4933727;29;20395;-65
2022/06/05 13:20:51;;;;;;;20.40;13.50;;;;;;;;;;4916391;28;20491;-65
2022/06/05 13:23:36;;;;;;;17.88;13.25;;;;;;;;;;4933670;28;20073;-65
2022/06/05 13:26:20;;;;;;;17.58;12.77;;;;;;;;;;4915934;29;20510;-65
2022/06/05 13:29:05;;;;;;;17.17;12.88;;;;;;;;;;4932387;29;20073;-63
2022/06/05 13:31:34;;;;;;;17.30;13.23;;;;;;;;;;4916372;29;20074;-63
2022/06/05 13:34:03;;;;;;;18.98;13.77;;;;;;;;;;4916072;29;20032;-66
2022/06/05 13:36:39;;;;;;;20.63;13.60;;;;;;;;;;4916558;29;20058;-66
2022/06/05 13:39:14;;;;;;;18.85;14.18;;;;;;;;;;4933196;29;20035;-63
2022/06/05 13:41:46;;;;;;;19.23;13.75;;;;;;;;;;4933374;29;20034;-63
2022/06/05 13:44:17;;;;;;;19.38;14.40;;;;;;;;;;4933517;29;20028;-63
2022/06/05 13:46:48;;;;;;;19.42;13.77;;;;;;;;;;4933347;29;20035;-65
2022/06/05 13:49:20;;;;;;;19.30;14.10;;;;;;;;;;4933250;29;20035;-64
2022/06/05 13:52:09;;;;;;;19.45;14.75;;;;;;;;;;4933428;29;20067;-66
2022/06/05 13:54:45;;;;;;;18.75;14.15;;;;;;;;;;4932825;29;20040;-63
2022/06/05 13:57:18;;;;;;;18.08;14.02;;;;;;;;;;4933705;29;20040;-63
2022/06/05 13:59:50;;;;;;;20.17;14.38;;;;;;;;;;4916298;29;20028;-64
2022/06/05 14:02:25;;;;;;;19.20;15.35;;;;;;;;;;4933335;29;20028;-63
2022/06/05 14:05:09;;;;;;;19.95;14.52;;;;;;;;;;4933202;28;20495;-63
2022/06/05 14:07:40;;;;;;;19.67;15.48;;;;;;;;;;4932672;29;20043;-62
2022/06/05 14:10:08;;;;;;;19.88;14.95;;;;;;;;;;4933085;28;20032;-64
2022/06/05 14:12:42;;;;;;;18.75;14.45;;;;;;;;;;4933139;28;20032;-64
2022/06/05 14:15:24;;;;;;;19.70;16.17;;;;;;;;;;4932366;28;20035;-64
2022/06/05 14:17:50;;;;;;;20.08;16.08;;;;;;;;;;4915595;28;20024;-63
2022/06/05 14:20:19;;;;;;;20.52;15.20;;;;;;;;;;4932947;29;20113;-62
2022/06/05 14:22:48;;;;;;;18.88;14.60;;;;;;;;;;4932659;29;20476;-65
2022/06/05 14:25:41;;;;;;;19.00;15.02;;;;;;;;;;4932585;29;20591;-64
2022/06/05 14:28:09;;;;;;;20.63;14.95;;;;;;;;;;4932023;28;20086;-62
2022/06/05 14:30:40;;;;;;;21.00;14.55;;;;;;;;;;4932445;29;20081;-61
2022/06/05 14:33:07;;;;;;;18.48;13.88;;;;;;;;;;4931403;28;20039;-64
2022/06/05 14:35:50;;;;;;;20.42;15.48;;;;;;;;;;4932348;29;20480;-63
2022/06/05 14:38:18;;;;;;;19.50;15.18;;;;;;;;;;4932282;28;20041;-63
2022/06/05 14:40:49;;;;;;;18.48;15.05;;;;;;;;;;4932663;28;20086;-62
2022/06/05 14:43:34;;;;;;;18.33;13.90;;;;;;;;;;4249430;28;9999859;-64
2022/06/05 14:46:19;;;;;;;18.63;14.65;;;;;;;;;;4931475;29;20034;-63
2022/06/05 14:48:51;;;;;;;20.75;15.10;;;;;;;;;;4931784;29;20032;-61